createdAt,value
2018-08-30T00:00:45.282Z,23.20
2018-08-30T00:02:49.110Z,23.30
2018-08-30T00:04:52.642Z,23.10
2018-08-30T00:06:56.156Z,23.10
2018-08-30T00:08:59.697Z,23.40
2018-08-30T00:11:03.263Z,23.40
2018-08-30T00:13:06.809Z,23.30
2018-08-30T00:15:10.337Z,23.20
2018-08-30T00:17:13.851Z,23.30
2018-08-30T00:19:17.401Z,23.50
2018-08-30T00:21:20.971Z,23.50
2018-08-30T00:23:24.534Z,23.60
2018-08-30T00:25:28.108Z,23.60
2018-08-30T00:27:31.924Z,23.40
2018-08-30T00:29:35.516Z,23.60
2018-08-30T00:31:39.180Z,23.70
2018-08-30T00:33:42.696Z,23.50
2018-08-30T00:35:46.240Z,23.70
2018-08-30T00:37:50.042Z,23.00
2018-08-30T00:39:53.590Z,22.90
2018-08-30T00:41:57.219Z,22.50
2018-08-30T00:44:00.708Z,22.70
2018-08-30T00:46:04.439Z,22.70
2018-08-30T00:48:08.077Z,22.70
2018-08-30T00:50:11.580Z,23.10
2018-08-30T00:52:15.208Z,23.30
2018-08-30T00:54:18.765Z,23.50
2018-08-30T00:56:22.317Z,23.60
2018-08-30T00:58:26.007Z,23.80
2018-08-30T01:00:29.591Z,24.00
2018-08-30T01:02:33.101Z,24.10
2018-08-30T01:04:37.110Z,24.00
2018-08-30T01:06:40.650Z,24.00
2018-08-30T01:08:44.232Z,24.00
2018-08-30T01:10:47.892Z,24.00
2018-08-30T01:12:54.034Z,24.00
2018-08-30T01:14:57.622Z,24.10
2018-08-30T01:17:01.284Z,24.20
2018-08-30T01:19:04.905Z,24.10
2018-08-30T01:21:08.476Z,24.10
2018-08-30T01:23:12.065Z,24.20
2018-08-30T01:25:15.857Z,24.00
2018-08-30T01:27:19.387Z,24.20
2018-08-30T01:29:23.060Z,24.30
2018-08-30T01:31:26.653Z,24.30
2018-08-30T01:33:30.190Z,24.20
2018-08-30T01:35:33.680Z,24.20
2018-08-30T01:37:37.563Z,24.20
2018-08-30T01:39:41.227Z,24.30
2018-08-30T01:41:44.746Z,24.00
2018-08-30T01:43:48.358Z,23.90
2018-08-30T01:45:51.853Z,23.50
2018-08-30T01:47:55.527Z,23.50
2018-08-30T01:49:59.173Z,22.80
2018-08-30T01:52:02.844Z,22.40
2018-08-30T01:54:06.929Z,22.30
2018-08-30T01:56:10.570Z,22.40
2018-08-30T01:58:14.151Z,22.20
2018-08-30T02:00:17.699Z,22.10
2018-08-30T02:02:21.328Z,22.30
2018-08-30T02:04:24.965Z,22.50
2018-08-30T02:06:28.508Z,22.70
2018-08-30T02:08:32.291Z,22.90
2018-08-30T02:10:35.941Z,22.80
2018-08-30T02:12:39.532Z,23.00
2018-08-30T02:14:43.227Z,23.10
2018-08-30T02:16:46.817Z,23.00
2018-08-30T02:18:50.325Z,22.90
2018-08-30T02:20:53.949Z,23.00
2018-08-30T02:22:57.481Z,22.90
2018-08-30T02:25:01.003Z,23.00
2018-08-30T02:27:04.537Z,22.90
2018-08-30T02:29:08.045Z,22.20
2018-08-30T02:31:11.520Z,22.40
2018-08-30T02:33:15.067Z,22.60
2018-08-30T02:35:18.799Z,22.80
2018-08-30T02:37:22.341Z,22.80
2018-08-30T02:39:25.864Z,22.30
2018-08-30T02:41:29.564Z,22.50
2018-08-30T02:43:33.327Z,22.60
2018-08-30T02:45:36.816Z,22.80
2018-08-30T02:47:40.311Z,22.90
2018-08-30T02:49:43.922Z,22.70
2018-08-30T02:51:47.524Z,22.70
2018-08-30T02:53:51.174Z,22.70
2018-08-30T02:55:54.823Z,22.60
2018-08-30T02:57:58.611Z,22.80
2018-08-30T03:00:02.167Z,22.50
2018-08-30T03:02:05.960Z,22.50
2018-08-30T03:04:09.463Z,22.70
2018-08-30T03:06:13.215Z,22.80
2018-08-30T03:08:16.730Z,23.00
2018-08-30T03:10:20.308Z,22.70
2018-08-30T03:12:23.873Z,22.90
2018-08-30T03:14:27.374Z,22.60
2018-08-30T03:16:31.092Z,21.70
2018-08-30T03:18:34.650Z,22.10
2018-08-30T03:20:38.527Z,22.40
2018-08-30T03:22:42.651Z,22.20
2018-08-30T03:24:46.162Z,22.10
2018-08-30T03:26:49.724Z,22.20
2018-08-30T03:28:53.421Z,22.40
2018-08-30T03:30:57.134Z,21.70
2018-08-30T03:33:00.566Z,21.70
2018-08-30T03:35:04.244Z,22.00
2018-08-30T03:37:08.005Z,22.40
2018-08-30T03:39:11.572Z,22.50
2018-08-30T03:41:15.176Z,22.40
2018-08-30T03:43:18.785Z,22.40
2018-08-30T03:45:22.335Z,22.40
2018-08-30T03:47:25.880Z,22.60
2018-08-30T03:49:29.392Z,22.80
2018-08-30T03:51:33.027Z,22.80
2018-08-30T03:53:36.654Z,22.80
2018-08-30T03:55:40.327Z,22.90
2018-08-30T03:57:44.099Z,22.40
2018-08-30T03:59:47.684Z,22.10
2018-08-30T04:01:51.224Z,22.10
2018-08-30T04:03:54.748Z,22.30
2018-08-30T04:05:58.236Z,21.70
2018-08-30T04:08:01.859Z,20.80
2018-08-30T04:10:05.463Z,20.60
2018-08-30T04:12:09.038Z,20.50
2018-08-30T04:14:12.683Z,19.90
2018-08-30T04:16:16.241Z,19.80
2018-08-30T04:18:19.912Z,20.00
2018-08-30T04:20:23.440Z,19.90
2018-08-30T04:22:26.977Z,20.00
2018-08-30T04:24:30.488Z,20.10
2018-08-30T04:26:34.099Z,19.70
2018-08-30T04:28:37.711Z,20.00
2018-08-30T04:30:41.247Z,19.90
2018-08-30T04:32:44.749Z,20.20
2018-08-30T04:34:48.445Z,19.90
2018-08-30T04:36:51.994Z,20.20
2018-08-30T04:38:56.591Z,20.70
2018-08-30T04:41:00.124Z,21.20
2018-08-30T04:43:03.863Z,21.50
2018-08-30T04:45:07.897Z,21.60
2018-08-30T04:47:11.692Z,21.80
2018-08-30T04:49:15.493Z,21.80
2018-08-30T04:51:19.104Z,21.90
2018-08-30T04:53:22.687Z,21.50
2018-08-30T04:55:26.192Z,21.90
2018-08-30T04:57:29.679Z,21.80
2018-08-30T04:59:33.219Z,22.10
2018-08-30T05:01:36.829Z,21.90
2018-08-30T05:03:40.268Z,21.80
2018-08-30T05:05:43.803Z,21.00
2018-08-30T05:07:47.368Z,21.10
2018-08-30T05:09:50.968Z,21.50
2018-08-30T05:11:54.590Z,21.60
2018-08-30T05:13:58.203Z,21.90
2018-08-30T05:16:01.864Z,22.20
2018-08-30T05:18:05.464Z,22.00
2018-08-30T05:20:09.232Z,22.10
2018-08-30T05:22:13.092Z,22.20
2018-08-30T05:24:16.608Z,22.10
2018-08-30T05:26:20.139Z,21.70
2018-08-30T05:28:23.647Z,22.00
2018-08-30T05:30:27.355Z,22.20
2018-08-30T05:32:31.179Z,22.50
2018-08-30T05:34:34.721Z,22.50
2018-08-30T05:36:38.312Z,22.10
2018-08-30T05:38:41.882Z,22.20
2018-08-30T05:40:45.440Z,22.00
2018-08-30T05:42:49.250Z,22.00
2018-08-30T05:44:52.786Z,22.10
2018-08-30T05:46:56.352Z,22.00
2018-08-30T05:48:59.912Z,21.70
2018-08-30T05:51:03.448Z,21.30
2018-08-30T05:53:07.279Z,21.10
2018-08-30T05:55:10.861Z,21.30
2018-08-30T05:57:14.613Z,21.40
2018-08-30T05:59:18.219Z,21.70
2018-08-30T06:01:21.755Z,21.50
2018-08-30T06:03:25.347Z,21.80
2018-08-30T06:05:28.875Z,22.10
2018-08-30T06:07:32.448Z,22.20
2018-08-30T06:09:36.047Z,22.10
2018-08-30T06:11:39.528Z,22.00
2018-08-30T06:13:43.019Z,21.90
2018-08-30T06:15:46.528Z,22.00
2018-08-30T06:17:50.123Z,22.20
2018-08-30T06:19:53.826Z,21.60
2018-08-30T06:21:57.366Z,21.70
2018-08-30T06:24:00.903Z,21.70
2018-08-30T06:26:04.437Z,21.70
2018-08-30T06:28:08.260Z,21.70
2018-08-30T06:30:11.830Z,21.50
2018-08-30T06:32:15.368Z,21.20
2018-08-30T06:34:18.849Z,21.20
2018-08-30T06:36:22.554Z,21.30
2018-08-30T06:38:26.109Z,21.50
2018-08-30T06:40:29.643Z,21.70
2018-08-30T06:42:33.130Z,21.90
2018-08-30T06:44:36.725Z,21.80
2018-08-30T06:46:40.270Z,21.00
2018-08-30T06:48:43.947Z,21.30
2018-08-30T06:50:47.385Z,21.10
2018-08-30T06:52:50.895Z,20.90
2018-08-30T06:54:54.559Z,21.00
2018-08-30T06:56:58.057Z,20.60
2018-08-30T06:59:01.532Z,20.70
2018-08-30T07:01:05.164Z,20.50
2018-08-30T07:03:08.810Z,20.70
2018-08-30T07:05:12.420Z,20.60
2018-08-30T07:07:15.895Z,20.80
2018-08-30T07:09:19.419Z,20.50
2018-08-30T07:11:23.044Z,20.50
2018-08-30T07:13:26.597Z,21.00
2018-08-30T07:15:30.161Z,20.80
2018-08-30T07:17:33.765Z,21.00
2018-08-30T07:19:37.354Z,20.80
2018-08-30T07:21:41.022Z,20.70
2018-08-30T07:23:44.555Z,20.90
2018-08-30T07:25:48.176Z,20.80
2018-08-30T07:27:51.663Z,20.70
2018-08-30T07:29:55.163Z,21.00
2018-08-30T07:31:58.842Z,20.90
2018-08-30T07:34:02.328Z,20.90
2018-08-30T07:36:05.956Z,20.80
2018-08-30T07:38:09.474Z,20.70
2018-08-30T07:40:13.144Z,20.70
2018-08-30T07:42:16.641Z,20.70
2018-08-30T07:44:20.189Z,20.60
2018-08-30T07:46:23.768Z,20.60
2018-08-30T07:48:27.295Z,20.40
2018-08-30T07:50:30.795Z,20.50
2018-08-30T07:52:34.314Z,21.20
2018-08-30T07:54:37.875Z,20.90
2018-08-30T07:56:41.766Z,20.80
2018-08-30T07:58:45.377Z,20.70
2018-08-30T08:00:49.367Z,21.30
2018-08-30T08:02:53.087Z,20.80
2018-08-30T08:04:56.563Z,20.60
2018-08-30T08:07:00.211Z,20.80
2018-08-30T08:09:04.392Z,20.80
2018-08-30T08:11:07.920Z,21.10
2018-08-30T08:13:11.536Z,21.50
2018-08-30T08:15:15.116Z,21.50
2018-08-30T08:17:18.764Z,21.30
2018-08-30T08:19:22.429Z,21.60
2018-08-30T08:21:25.918Z,22.00
2018-08-30T08:23:29.475Z,22.00
2018-08-30T08:25:32.926Z,21.80
2018-08-30T08:27:36.608Z,21.70
2018-08-30T08:29:40.117Z,21.30
2018-08-30T08:31:43.732Z,21.20
2018-08-30T08:33:47.238Z,21.20
2018-08-30T08:35:50.817Z,21.10
2018-08-30T08:37:54.440Z,20.60
2018-08-30T08:39:58.047Z,20.50
2018-08-30T08:42:01.742Z,20.40
2018-08-30T08:44:05.259Z,20.30
2018-08-30T08:46:09.038Z,20.00
2018-08-30T08:48:12.543Z,20.30
2018-08-30T08:50:16.124Z,20.40
2018-08-30T08:52:19.684Z,20.80
2018-08-30T08:54:23.367Z,21.20
2018-08-30T08:56:26.880Z,21.10
2018-08-30T08:58:30.506Z,20.80
2018-08-30T09:00:34.064Z,21.00
2018-08-30T09:02:37.845Z,21.10
2018-08-30T09:04:41.551Z,21.10
2018-08-30T09:06:45.071Z,21.20
2018-08-30T09:08:48.583Z,21.40
2018-08-30T09:10:52.103Z,21.00
2018-08-30T09:12:55.792Z,20.70
2018-08-30T09:14:59.321Z,20.90
2018-08-30T09:17:03.187Z,21.30
2018-08-30T09:19:07.167Z,21.80
2018-08-30T09:21:10.848Z,21.70
2018-08-30T09:23:14.541Z,21.50
2018-08-30T09:25:18.187Z,21.20
2018-08-30T09:27:21.803Z,20.80
2018-08-30T09:29:25.290Z,21.30
2018-08-30T09:31:28.823Z,21.40
2018-08-30T09:33:32.330Z,21.60
2018-08-30T09:35:35.850Z,21.60
2018-08-30T09:37:39.455Z,21.30
2018-08-30T09:39:43.976Z,21.20
2018-08-30T09:41:47.595Z,20.90
2018-08-30T09:43:51.256Z,21.40
2018-08-30T09:45:54.691Z,21.60
2018-08-30T09:47:58.213Z,21.30
2018-08-30T09:50:01.728Z,21.10
2018-08-30T09:52:05.640Z,21.50
2018-08-30T09:54:09.236Z,21.80
2018-08-30T09:56:12.822Z,21.80
2018-08-30T09:58:16.612Z,21.20
2018-08-30T10:00:25.262Z,21.70
2018-08-30T10:02:35.345Z,21.80
2018-08-30T10:04:38.905Z,21.70
2018-08-30T10:06:42.388Z,21.90
2018-08-30T10:08:45.914Z,22.10
2018-08-30T10:10:49.494Z,22.00
2018-08-30T10:12:53.004Z,22.00
2018-08-30T10:14:56.526Z,22.50
2018-08-30T10:17:00.906Z,22.60
2018-08-30T10:19:04.447Z,22.10
2018-08-30T10:21:07.894Z,22.30
2018-08-30T10:23:11.464Z,22.00
2018-08-30T10:25:15.242Z,20.40
2018-08-30T10:27:18.771Z,20.10
2018-08-30T10:29:22.307Z,20.70
2018-08-30T10:31:25.901Z,21.50
2018-08-30T10:33:29.347Z,21.50
2018-08-30T10:35:32.908Z,20.50
2018-08-30T10:37:36.428Z,21.20
2018-08-30T10:39:39.914Z,21.60
2018-08-30T10:41:43.518Z,21.60
2018-08-30T10:43:47.100Z,21.60
2018-08-30T10:45:50.587Z,21.50
2018-08-30T10:47:54.154Z,21.70
2018-08-30T10:49:57.705Z,20.60
2018-08-30T10:52:01.168Z,22.10
2018-08-30T10:54:04.876Z,22.10
2018-08-30T10:56:08.443Z,21.30
2018-08-30T10:58:11.984Z,20.50
2018-08-30T11:00:16.559Z,20.10
2018-08-30T11:02:20.131Z,20.60
2018-08-30T11:04:26.856Z,20.20
2018-08-30T11:06:30.348Z,20.80
2018-08-30T11:08:33.890Z,21.20
2018-08-30T11:10:37.499Z,21.30
2018-08-30T11:12:41.060Z,21.30
2018-08-30T11:14:44.696Z,21.40
2018-08-30T11:16:48.215Z,21.70
2018-08-30T11:18:51.795Z,22.30
2018-08-30T11:20:55.360Z,22.80
2018-08-30T11:22:59.192Z,21.90
2018-08-30T11:25:02.735Z,21.90
2018-08-30T11:27:06.448Z,21.20
2018-08-30T11:29:10.005Z,20.70
2018-08-30T11:31:13.731Z,21.30
2018-08-30T11:33:17.246Z,21.60
2018-08-30T11:35:20.899Z,21.90
2018-08-30T11:37:24.495Z,22.00
2018-08-30T11:39:28.018Z,22.30
2018-08-30T11:41:31.762Z,22.20
2018-08-30T11:43:35.170Z,22.40
2018-08-30T11:45:38.707Z,22.30
2018-08-30T11:47:42.225Z,22.50
2018-08-30T11:49:45.719Z,22.40
2018-08-30T11:51:49.362Z,22.30
2018-08-30T11:53:52.887Z,22.50
2018-08-30T11:55:56.430Z,22.40
2018-08-30T11:57:59.903Z,22.20
2018-08-30T12:00:03.472Z,22.50
2018-08-30T12:02:06.994Z,22.70
2018-08-30T12:04:10.883Z,22.10
2018-08-30T12:06:14.531Z,21.40
2018-08-30T12:08:18.308Z,21.20
2018-08-30T12:10:22.071Z,21.00
2018-08-30T12:12:25.420Z,21.60
2018-08-30T12:14:29.098Z,21.20
2018-08-30T12:16:32.883Z,21.20
2018-08-30T12:18:36.520Z,21.50
2018-08-30T12:20:41.106Z,22.10
2018-08-30T12:22:44.556Z,21.30
2018-08-30T12:24:48.115Z,21.00
2018-08-30T12:26:51.702Z,21.30
2018-08-30T12:28:55.427Z,20.70
2018-08-30T12:30:59.496Z,20.70
2018-08-30T12:33:03.196Z,21.10
2018-08-30T12:35:06.810Z,21.70
2018-08-30T12:37:10.255Z,21.70
2018-08-30T12:39:14.373Z,22.00
2018-08-30T12:41:17.857Z,22.20
2018-08-30T12:43:21.628Z,22.60
2018-08-30T12:45:25.053Z,23.00
2018-08-30T12:47:28.569Z,22.70
2018-08-30T12:49:32.092Z,22.80
2018-08-30T12:51:35.927Z,23.30
2018-08-30T12:53:39.175Z,22.30
2018-08-30T12:55:42.689Z,22.10
2018-08-30T12:57:46.191Z,22.30
2018-08-30T12:59:49.897Z,23.00
2018-08-30T13:01:53.399Z,22.30
2018-08-30T13:03:57.006Z,21.40
2018-08-30T13:06:00.627Z,21.40
2018-08-30T13:08:04.034Z,21.80
2018-08-30T13:10:07.751Z,22.30
2018-08-30T13:12:11.387Z,22.70
2018-08-30T13:14:14.825Z,22.70
2018-08-30T13:16:18.535Z,22.80
2018-08-30T13:18:22.410Z,22.50
2018-08-30T13:20:26.068Z,22.10
2018-08-30T13:22:29.754Z,23.00
2018-08-30T13:24:33.228Z,23.20
2018-08-30T13:26:37.018Z,23.10
2018-08-30T13:28:40.931Z,23.20
2018-08-30T13:30:44.578Z,23.50
2018-08-30T13:32:48.152Z,23.40
2018-08-30T13:34:51.671Z,23.40
2018-08-30T13:36:55.330Z,23.50
2018-08-30T13:38:59.252Z,23.50
2018-08-30T13:41:03.026Z,23.10
2018-08-30T13:43:06.815Z,23.10
2018-08-30T13:45:10.723Z,23.70
2018-08-30T13:47:14.165Z,23.30
2018-08-30T13:49:17.539Z,22.80
2018-08-30T13:51:21.190Z,23.30
2018-08-30T13:53:24.936Z,23.20
2018-08-30T13:55:28.458Z,23.20
2018-08-30T13:57:32.291Z,22.40
2018-08-30T13:59:36.167Z,23.00
2018-08-30T14:01:39.368Z,23.30
2018-08-30T14:03:42.915Z,23.70
2018-08-30T14:05:46.509Z,23.50
2018-08-30T14:07:50.212Z,23.50
2018-08-30T14:09:53.650Z,23.50
2018-08-30T14:11:57.235Z,23.90
2018-08-30T14:14:00.854Z,23.80
2018-08-30T14:16:04.091Z,24.20
2018-08-30T14:18:07.604Z,24.20
2018-08-30T14:20:11.098Z,23.40
2018-08-30T14:22:14.635Z,22.70
2018-08-30T14:24:18.224Z,22.90
2018-08-30T14:26:21.785Z,22.80
2018-08-30T14:28:25.331Z,23.30
2018-08-30T14:30:28.849Z,23.80
2018-08-30T14:32:32.332Z,24.20
2018-08-30T14:34:35.868Z,23.50
2018-08-30T14:36:39.698Z,23.70
2018-08-30T14:38:43.331Z,23.80
2018-08-30T14:40:47.052Z,23.20
2018-08-30T14:42:50.448Z,23.40
2018-08-30T14:44:53.928Z,23.20
2018-08-30T14:46:57.550Z,23.90
2018-08-30T14:49:01.298Z,23.20
2018-08-30T14:51:04.950Z,23.20
2018-08-30T14:53:08.733Z,23.90
2018-08-30T14:55:12.200Z,24.10
2018-08-30T14:57:15.809Z,24.00
2018-08-30T14:59:19.523Z,24.70
2018-08-30T15:01:23.468Z,24.20
2018-08-30T15:03:27.118Z,23.50
2018-08-30T15:05:30.894Z,23.80
2018-08-30T15:07:34.100Z,23.40
2018-08-30T15:09:37.880Z,23.10
2018-08-30T15:11:41.451Z,23.50
2018-08-30T15:13:44.994Z,23.00
2018-08-30T15:15:48.548Z,23.20
2018-08-30T15:17:52.230Z,23.70
2018-08-30T15:19:55.917Z,23.90
2018-08-30T15:21:59.415Z,23.80
2018-08-30T15:24:03.060Z,24.00
2018-08-30T15:26:06.739Z,23.10
2018-08-30T15:28:10.246Z,22.20
2018-08-30T15:30:13.731Z,23.10
2018-08-30T15:32:17.415Z,23.70
2018-08-30T15:34:20.951Z,24.00
2018-08-30T15:36:24.479Z,24.00
2018-08-30T15:38:28.258Z,23.70
2018-08-30T15:40:32.011Z,23.70
2018-08-30T15:42:35.556Z,23.00
2018-08-30T15:44:39.156Z,22.70
2018-08-30T15:46:42.795Z,23.00
2018-08-30T15:48:46.352Z,23.10
2018-08-30T15:50:49.984Z,22.70
2018-08-30T15:52:53.526Z,23.20
2018-08-30T15:54:57.029Z,22.90
2018-08-30T15:57:00.635Z,22.60
2018-08-30T15:59:04.223Z,23.30
2018-08-30T16:01:07.755Z,23.40
2018-08-30T16:03:11.556Z,23.20
2018-08-30T16:05:15.328Z,23.50
2018-08-30T16:07:18.828Z,22.50
2018-08-30T16:09:22.337Z,22.70
2018-08-30T16:11:26.139Z,22.90
2018-08-30T16:13:29.643Z,23.30
2018-08-30T16:15:33.441Z,23.80
2018-08-30T16:17:36.981Z,23.50
2018-08-30T16:19:40.601Z,23.20
2018-08-30T16:21:44.182Z,23.80
2018-08-30T16:23:48.027Z,24.20
2018-08-30T16:25:51.552Z,24.00
2018-08-30T16:27:55.663Z,24.00
2018-08-30T16:29:59.411Z,23.60
2018-08-30T16:32:02.973Z,23.50
2018-08-30T16:34:06.579Z,24.00
2018-08-30T16:36:10.154Z,24.30
2018-08-30T16:38:14.308Z,24.00
2018-08-30T16:40:17.908Z,23.00
2018-08-30T16:42:21.622Z,23.70
2018-08-30T16:44:25.248Z,24.20
2018-08-30T16:46:28.859Z,24.60
2018-08-30T16:48:32.722Z,24.50
2018-08-30T16:50:36.251Z,24.90
2018-08-30T16:52:39.760Z,25.10
2018-08-30T16:54:43.443Z,25.30
2018-08-30T16:56:46.906Z,25.40
2018-08-30T16:58:50.444Z,25.40
2018-08-30T17:00:53.983Z,25.30
2018-08-30T17:02:58.171Z,25.40
2018-08-30T17:05:01.748Z,25.50
2018-08-30T17:07:05.340Z,25.40
2018-08-30T17:09:09.323Z,25.30
2018-08-30T17:11:12.950Z,24.90
2018-08-30T17:13:16.461Z,24.80
2018-08-30T17:15:19.971Z,24.90
2018-08-30T17:17:23.654Z,24.80
2018-08-30T17:19:30.597Z,24.60
2018-08-30T17:21:34.234Z,24.60
2018-08-30T17:23:37.747Z,24.70
2018-08-30T17:25:42.108Z,24.70
2018-08-30T17:27:45.694Z,23.80
2018-08-30T17:29:49.267Z,23.50
2018-08-30T17:31:52.784Z,23.70
2018-08-30T17:33:56.455Z,24.00
2018-08-30T17:36:00.159Z,24.20
2018-08-30T17:38:03.684Z,24.40
2018-08-30T17:40:07.272Z,24.40
2018-08-30T17:42:10.767Z,24.50
2018-08-30T17:44:14.299Z,24.60
2018-08-30T17:46:17.900Z,24.40
2018-08-30T17:48:21.419Z,24.30
2018-08-30T17:50:25.156Z,24.40
2018-08-30T17:52:28.520Z,24.40
2018-08-30T17:54:32.124Z,24.40
2018-08-30T17:56:35.734Z,24.30
2018-08-30T17:58:39.432Z,24.20
2018-08-30T18:00:43.020Z,24.20
2018-08-30T18:02:53.350Z,24.20
2018-08-30T18:04:57.136Z,24.20
2018-08-30T18:07:00.668Z,24.20
2018-08-30T18:09:05.122Z,24.20
2018-08-30T18:11:08.667Z,24.20
2018-08-30T18:13:12.176Z,24.10
2018-08-30T18:15:16.469Z,24.00
2018-08-30T18:17:20.021Z,23.90
2018-08-30T18:19:23.544Z,23.80
2018-08-30T18:21:27.268Z,23.80
2018-08-30T18:23:30.815Z,23.70
2018-08-30T18:25:34.567Z,23.70
2018-08-30T18:27:38.089Z,23.70
2018-08-30T18:29:41.845Z,23.60
2018-08-30T18:31:45.516Z,23.50
2018-08-30T18:33:49.162Z,23.50
2018-08-30T18:35:52.702Z,23.60
2018-08-30T18:37:56.205Z,23.60
2018-08-30T18:39:59.760Z,23.50
2018-08-30T18:42:03.374Z,23.40
2018-08-30T18:44:06.867Z,23.30
2018-08-30T18:46:10.436Z,23.20
2018-08-30T18:48:13.971Z,23.20
2018-08-30T18:50:17.622Z,22.80
2018-08-30T18:52:21.151Z,22.60
2018-08-30T18:54:24.788Z,22.60
2018-08-30T18:56:28.612Z,22.50
2018-08-30T18:58:32.232Z,22.40
2018-08-30T19:00:35.946Z,22.20
2018-08-30T19:02:39.445Z,22.10
2018-08-30T19:04:43.068Z,22.20
2018-08-30T19:06:47.295Z,22.00
2018-08-30T19:08:51.041Z,22.00
2018-08-30T19:10:54.930Z,22.10
2018-08-30T19:12:58.908Z,22.10
2018-08-30T19:15:06.706Z,22.10
2018-08-30T19:17:15.589Z,22.20
2018-08-30T19:19:21.648Z,22.30
2018-08-30T19:21:25.274Z,22.30
2018-08-30T19:23:29.183Z,22.30
2018-08-30T19:25:32.752Z,22.40
2018-08-30T19:27:36.708Z,22.30
2018-08-30T19:29:46.071Z,22.20
2018-08-30T19:31:49.705Z,22.20
2018-08-30T19:33:53.476Z,22.30
2018-08-30T19:36:02.623Z,22.10
2018-08-30T19:38:06.374Z,22.00
2018-08-30T19:40:14.333Z,22.00
2018-08-30T19:42:17.971Z,21.90
2018-08-30T19:44:21.570Z,21.90
2018-08-30T19:46:25.189Z,21.60
2018-08-30T19:48:28.835Z,21.40
2018-08-30T19:50:32.666Z,21.40
2018-08-30T19:52:36.361Z,21.40
2018-08-30T19:54:39.864Z,21.50
2018-08-30T19:56:43.463Z,21.60
2018-08-30T19:58:47.077Z,21.70
2018-08-30T20:00:50.600Z,21.80
2018-08-30T20:02:54.352Z,21.70
2018-08-30T20:04:57.869Z,21.60
2018-08-30T20:07:01.505Z,21.70
2018-08-30T20:09:06.245Z,21.50
2018-08-30T20:11:09.748Z,21.30
2018-08-30T20:13:13.317Z,21.00
2018-08-30T20:15:17.134Z,21.00
2018-08-30T20:17:20.827Z,20.80
2018-08-30T20:19:24.396Z,20.80
2018-08-30T20:21:27.980Z,20.70
2018-08-30T20:23:31.696Z,20.70
2018-08-30T20:25:35.584Z,20.70
2018-08-30T20:27:39.098Z,20.60
2018-08-30T20:29:42.581Z,20.20
2018-08-30T20:31:46.149Z,20.10
2018-08-30T20:33:49.739Z,20.20
2018-08-30T20:35:53.308Z,20.50
2018-08-30T20:37:56.796Z,20.80
2018-08-30T20:40:00.397Z,20.90
2018-08-30T20:42:03.972Z,20.90
2018-08-30T20:44:07.499Z,20.80
2018-08-30T20:46:11.034Z,20.70
2018-08-30T20:48:14.571Z,20.80
2018-08-30T20:50:18.284Z,21.00
2018-08-30T20:52:22.064Z,21.10
2018-08-30T20:54:25.608Z,21.20
2018-08-30T20:56:29.384Z,21.20
2018-08-30T20:58:33.035Z,21.20
2018-08-30T21:00:36.644Z,21.20
2018-08-30T21:02:40.545Z,21.20
2018-08-30T21:04:44.094Z,21.10
2018-08-30T21:06:47.785Z,20.90
2018-08-30T21:08:51.381Z,20.60
2018-08-30T21:10:54.876Z,20.60
2018-08-30T21:12:58.552Z,20.70
2018-08-30T21:15:02.158Z,20.70
2018-08-30T21:17:06.161Z,20.70
2018-08-30T21:19:09.894Z,20.70
2018-08-30T21:21:13.428Z,20.70
2018-08-30T21:23:16.981Z,20.70
2018-08-30T21:25:20.476Z,20.80
2018-08-30T21:27:24.110Z,20.80
2018-08-30T21:29:27.696Z,20.20
2018-08-30T21:31:31.303Z,20.10
2018-08-30T21:33:34.972Z,19.80
2018-08-30T21:35:38.694Z,20.00
2018-08-30T21:37:42.264Z,20.10
2018-08-30T21:39:46.043Z,19.90
2018-08-30T21:41:49.587Z,19.90
2018-08-30T21:43:53.086Z,19.90
2018-08-30T21:45:56.785Z,20.00
2018-08-30T21:48:00.361Z,20.10
2018-08-30T21:50:04.161Z,20.10
2018-08-30T21:52:07.986Z,19.80
2018-08-30T21:54:11.701Z,19.40
2018-08-30T21:56:15.187Z,19.70
2018-08-30T21:58:18.708Z,20.00
2018-08-30T22:00:22.367Z,20.20
2018-08-30T22:02:26.178Z,20.00
2018-08-30T22:04:29.674Z,20.10
2018-08-30T22:06:33.235Z,20.30
2018-08-30T22:08:36.768Z,19.40
2018-08-30T22:10:40.291Z,19.80
2018-08-30T22:12:43.960Z,19.70
2018-08-30T22:14:47.486Z,19.90
2018-08-30T22:16:50.977Z,20.30
2018-08-30T22:19:01.239Z,20.50
2018-08-30T22:21:04.963Z,20.70
2018-08-30T22:23:08.529Z,20.80
2018-08-30T22:25:13.152Z,20.80
2018-08-30T22:27:16.844Z,20.90
2018-08-30T22:29:20.541Z,20.70
2018-08-30T22:31:24.056Z,20.20
2018-08-30T22:33:27.673Z,19.90
2018-08-30T22:35:31.375Z,19.90
2018-08-30T22:37:34.936Z,19.30
2018-08-30T22:39:38.510Z,19.00
2018-08-30T22:41:42.174Z,18.60
2018-08-30T22:43:45.730Z,18.80
2018-08-30T22:45:49.262Z,19.00
2018-08-30T22:47:52.836Z,19.50
2018-08-30T22:49:56.470Z,19.90
2018-08-30T22:52:00.100Z,20.20
2018-08-30T22:54:03.698Z,20.30
2018-08-30T22:56:07.243Z,20.40
2018-08-30T22:58:10.805Z,20.40
2018-08-30T23:00:14.356Z,20.10
2018-08-30T23:02:17.892Z,20.30
2018-08-30T23:04:21.400Z,20.20
2018-08-30T23:06:24.958Z,20.50
2018-08-30T23:08:28.487Z,20.50
2018-08-30T23:10:32.095Z,20.50
2018-08-30T23:12:35.645Z,20.60
2018-08-30T23:14:39.203Z,20.20
2018-08-30T23:16:42.799Z,20.20
2018-08-30T23:18:46.288Z,20.20
2018-08-30T23:20:49.945Z,20.30
2018-08-30T23:22:53.516Z,20.40
2018-08-30T23:24:57.050Z,20.30
2018-08-30T23:27:00.695Z,20.00
2018-08-30T23:29:04.238Z,19.90
2018-08-30T23:31:07.739Z,19.90
2018-08-30T23:33:11.416Z,19.60
2018-08-30T23:35:14.983Z,19.80
2018-08-30T23:37:18.488Z,19.40
2018-08-30T23:39:22.202Z,19.40
2018-08-30T23:41:25.733Z,19.40
2018-08-30T23:43:29.297Z,19.30
2018-08-30T23:45:32.845Z,19.30
2018-08-30T23:47:36.463Z,19.50
2018-08-30T23:49:40.016Z,19.50
2018-08-30T23:51:43.524Z,19.40
2018-08-30T23:53:47.219Z,19.60
2018-08-30T23:55:50.777Z,19.50
2018-08-30T23:58:05.594Z,19.70
